Time;durP1;ratioP1;P1;durP2;ratioP2;P2;SDS_P1;SDS_P2;PMS_P1;PMS_P2;Temp;Humidity;BMP_temperature;BMP_pressure;BME280_temperature;BME280_humidity;BME280_pressure;Samples;Min_cycle;Max_cycle;Signal;HPM_P1;HPM_P2
2023/05/06 00:07:54;;;;;;;;;;;;;;;13.32;100.00;97862.88;18565465;32;19990;-56
2023/05/06 00:17:57;;;;;;;;;;;;;;;13.27;100.00;97856.69;18550128;32;19956;-55
2023/05/06 00:27:59;;;;;;;;;;;;;;;13.25;100.00;97853.41;18549730;32;19952;-55
2023/05/06 00:38:09;;;;;;;;;;;;;;;13.25;100.00;97845.28;18563311;32;20332;-55
2023/05/06 00:48:13;;;;;;;;;;;;;;;13.19;100.00;97839.88;18563126;32;19964;-54
2023/05/06 00:58:17;;;;;;;;;;;;;;;13.08;100.00;97837.53;18562513;32;19949;-55
2023/05/06 01:08:31;;;;;;;;;;;;;;;13.00;100.00;97830.78;18561951;32;20012;-55
2023/05/06 01:18:34;;;;;;;;;;;;;;;12.98;100.00;97839.22;18562024;32;20340;-55
2023/05/06 01:28:37;;;;;;;;;;;;;;;12.94;100.00;97827.31;18560715;32;19995;-56
2023/05/06 01:38:52;;;;;;;;;;;;;;;12.85;100.00;97828.97;18560781;32;20343;-55
2023/05/06 01:48:55;;;;;;;;;;;;;;;12.77;100.00;97833.12;18560812;32;19984;-55
2023/05/06 01:58:58;;;;;;;;;;;;;;;12.69;100.00;97825.56;18560410;32;20004;-56
2023/05/06 02:09:01;;;;;;;;;;;;;;;12.59;100.00;97823.69;18560019;32;19948;-55
2023/05/06 02:19:05;;;;;;;;;;;;;;;12.46;100.00;97827.84;18559522;32;20242;-56
2023/05/06 02:29:07;;;;;;;;;;;;;;;12.42;100.00;97825.97;18544083;32;19993;-55
2023/05/06 02:39:10;;;;;;;;;;;;;;;12.35;100.00;97815.41;18549416;32;20035;-54
2023/05/06 02:49:13;;;;;;;;;;;;;;;12.29;100.00;97822.78;18556100;32;20320;-55
2023/05/06 02:59:15;;;;;;;;;;;;;;;12.10;100.00;97808.19;18569680;32;19989;-55
2023/05/06 03:09:18;;;;;;;;;;;;;;;11.97;100.00;97807.69;18569008;32;20280;-54
2023/05/06 03:19:21;;;;;;;;;;;;;;;12.00;100.00;97809.03;18568942;32;20260;-55
2023/05/06 03:29:23;;;;;;;;;;;;;;;12.06;100.00;97815.25;18567718;32;20006;-55
2023/05/06 03:39:26;;;;;;;;;;;;;;;12.07;100.00;97814.97;18567023;32;20012;-55
2023/05/06 03:49:28;;;;;;;;;;;;;;;12.05;100.00;97811.72;18567084;32;19956;-55
2023/05/06 03:59:31;;;;;;;;;;;;;;;12.07;100.00;97814.16;18566324;32;19984;-55
2023/05/06 04:09:34;;;;;;;;;;;;;;;11.98;100.00;97803.88;18565554;31;20288;-55
2023/05/06 04:19:36;;;;;;;;;;;;;;;11.99;100.00;97801.97;18564656;32;19948;-54
2023/05/06 04:29:39;;;;;;;;;;;;;;;11.98;100.00;97794.97;18564033;32;19957;-54
2023/05/06 04:39:45;;;;;;;;;;;;;;;12.04;100.00;97793.84;18549395;32;20267;-55
2023/05/06 04:49:48;;;;;;;;;;;;;;;12.19;100.00;97796.47;18563197;32;19964;-54
2023/05/06 04:59:51;;;;;;;;;;;;;;;12.34;100.00;97803.75;18562711;32;19956;-55
2023/05/06 05:09:54;;;;;;;;;;;;;;;12.53;100.00;97806.63;18561703;32;19971;-55
2023/05/06 05:19:56;;;;;;;;;;;;;;;12.75;100.00;97802.72;18561840;32;19952;-55
2023/05/06 05:29:59;;;;;;;;;;;;;;;12.89;100.00;97811.03;18547024;32;19956;-55
2023/05/06 05:40:03;;;;;;;;;;;;;;;13.35;100.00;97824.31;18560587;32;19967;-54
2023/05/06 05:50:06;;;;;;;;;;;;;;;13.63;100.00;97826.53;18560403;32;19957;-56
2023/05/06 06:00:09;;;;;;;;;;;;;;;13.90;100.00;97826.78;18546116;32;19960;-55
2023/05/06 06:10:14;;;;;;;;;;;;;;;14.09;100.00;97825.22;18560519;32;19961;-56
2023/05/06 06:20:17;;;;;;;;;;;;;;;14.28;100.00;97831.56;18572039;32;19952;-56
2023/05/06 06:30:19;;;;;;;;;;;;;;;14.72;100.00;97856.91;18571413;32;20344;-56
2023/05/06 06:40:22;;;;;;;;;;;;;;;15.08;100.00;97840.84;18556808;32;19945;-55
2023/05/06 06:50:25;;;;;;;;;;;;;;;15.89;100.00;97836.28;18556073;31;19964;-55
2023/05/06 07:00:28;;;;;;;;;;;;;;;16.68;100.00;97838.00;18570088;32;19965;-54
2023/05/06 07:10:34;;;;;;;;;;;;;;;16.90;100.00;97840.00;18554151;32;20055;-56
2023/05/06 07:20:39;;;;;;;;;;;;;;;17.02;100.00;97842.22;18569063;32;19949;-56
2023/05/06 07:30:42;;;;;;;;;;;;;;;17.23;100.00;97848.00;18553316;32;19956;-56
2023/05/06 07:40:44;;;;;;;;;;;;;;;17.36;100.00;97840.88;18566877;32;20381;-56
2023/05/06 07:50:47;;;;;;;;;;;;;;;17.70;100.00;97844.16;18566314;32;19960;-56
2023/05/06 08:00:49;;;;;;;;;;;;;;;18.03;100.00;97836.47;18566067;32;19948;-55
2023/05/06 08:10:56;;;;;;;;;;;;;;;18.51;100.00;97851.28;18550902;32;20012;-56
2023/05/06 08:21:00;;;;;;;;;;;;;;;18.92;100.00;97865.75;18564303;32;19960;-56
2023/05/06 08:31:02;;;;;;;;;;;;;;;19.08;100.00;97857.88;18563476;32;19948;-55
2023/05/06 08:41:08;;;;;;;;;;;;;;;19.72;100.00;97861.88;18561722;31;19975;-55
2023/05/06 08:51:13;;;;;;;;;;;;;;;19.59;100.00;97856.25;18563096;32;20325;-55
2023/05/06 09:01:16;;;;;;;;;;;;;;;19.24;100.00;97850.81;18562482;32;19988;-55
2023/05/06 09:11:20;;;;;;;;;;;;;;;20.24;100.00;97842.56;18562051;32;19999;-56
2023/05/06 09:21:28;;;;;;;;;;;;;;;20.80;100.00;97830.63;18561305;32;20314;-55
2023/05/06 09:31:30;;;;;;;;;;;;;;;20.62;100.00;97829.91;18561136;32;19972;-55
2023/05/06 09:41:34;;;;;;;;;;;;;;;21.31;100.00;97838.84;18560405;32;19956;-53
2023/05/06 09:51:38;;;;;;;;;;;;;;;21.13;100.00;97821.66;18570814;32;20292;-54
2023/05/06 10:01:41;;;;;;;;;;;;;;;21.64;100.00;97808.59;18573886;32;20294;-55
2023/05/06 10:11:44;;;;;;;;;;;;;;;21.24;100.00;97794.56;18572837;32;20351;-55
2023/05/06 10:21:50;;;;;;;;;;;;;;;21.22;95.04;97792.16;18557932;32;20261;-55
2023/05/06 10:31:54;;;;;;;;;;;;;;;21.58;100.00;97795.41;18557599;31;19953;-55
2023/05/06 10:41:56;;;;;;;;;;;;;;;21.93;92.36;97775.75;18556513;32;19956;-55
2023/05/06 10:52:10;;;;;;;;;;;;;;;22.19;95.61;97775.41;18570241;32;19952;-55
2023/05/06 11:02:15;;;;;;;;;;;;;;;22.82;96.92;97777.78;18569294;32;19956;-54
2023/05/06 11:12:19;;;;;;;;;;;;;;;22.76;81.61;97772.84;18568951;32;19948;-55
2023/05/06 11:22:37;;;;;;;;;;;;;;;22.61;84.17;97755.91;18567584;31;19991;-55
2023/05/06 11:32:41;;;;;;;;;;;;;;;22.82;90.21;97749.41;18567544;31;19956;-55
2023/05/06 11:42:44;;;;;;;;;;;;;;;23.35;77.57;97739.09;18553085;32;20022;-55
2023/05/06 11:52:46;;;;;;;;;;;;;;;23.47;76.59;97740.19;18566382;32;19956;-55
2023/05/06 12:02:53;;;;;;;;;;;;;;;24.27;73.16;97732.72;18566009;32;19997;-54
2023/05/06 12:12:55;;;;;;;;;;;;;;;24.62;69.20;97731.16;18564510;32;20000;-55
2023/05/06 12:23:11;;;;;;;;;;;;;;;24.69;61.66;97726.59;18549739;32;19973;-54
2023/05/06 12:33:14;;;;;;;;;;;;;;;25.14;68.33;97731.81;18563638;32;19956;-55
2023/05/06 12:43:17;;;;;;;;;;;;;;;25.45;53.92;97730.88;18563340;32;19964;-54
2023/05/06 12:53:33;;;;;;;;;;;;;;;25.27;49.61;97713.06;18562746;32;20283;-57
2023/05/06 13:03:37;;;;;;;;;;;;;;;25.10;56.85;97717.13;18561785;32;20442;-57
2023/05/06 13:13:40;;;;;;;;;;;;;;;25.61;53.07;97714.13;18561480;31;19983;-56
2023/05/06 13:23:46;;;;;;;;;;;;;;;25.63;47.14;97708.25;18561067;32;20363;-56
2023/05/06 13:34:25;;;;;;;;;;;;;;;25.59;53.46;97699.06;18546888;32;19952;-57
2023/05/06 13:44:51;;;;;;;;;;;;;;;25.58;51.23;97691.94;18220866;32;20365;-55
2023/05/06 13:54:58;;;;;;;;;;;;;;;26.17;51.62;97684.19;18230625;32;19977;-56
2023/05/06 14:05:01;;;;;;;;;;;;;;;26.71;52.93;97669.09;18230497;32;19970;-57
2023/05/06 14:15:05;;;;;;;;;;;;;;;26.99;49.46;97672.59;18287272;32;20004;-55
2023/05/06 14:25:09;;;;;;;;;;;;;;;26.95;53.87;97661.44;18559476;32;19976;-57
2023/05/06 14:35:13;;;;;;;;;;;;;;;27.86;48.71;97665.88;18564079;32;20344;-55
2023/05/06 14:45:16;;;;;;;;;;;;;;;27.98;49.64;97648.88;18570620;32;20299;-56
2023/05/06 14:55:19;;;;;;;;;;;;;;;27.70;44.97;97644.72;18542595;32;19993;-54
2023/05/06 15:05:22;;;;;;;;;;;;;;;27.35;48.64;97645.19;18569299;32;19972;-54
2023/05/06 15:15:24;;;;;;;;;;;;;;;26.91;48.57;97629.28;18554206;32;20336;-53
2023/05/06 15:25:29;;;;;;;;;;;;;;;26.82;44.38;97619.28;18568268;32;20004;-54
2023/05/06 15:35:37;;;;;;;;;;;;;;;26.32;50.08;97621.44;18567807;32;20001;-54
2023/05/06 15:45:40;;;;;;;;;;;;;;;25.53;51.60;97619.09;18552397;32;19961;-53
2023/05/06 15:55:43;;;;;;;;;;;;;;;25.60;53.30;97610.09;18566273;31;20369;-54
2023/05/06 16:05:58;;;;;;;;;;;;;;;25.56;52.45;97589.88;18553425;32;20006;-54
2023/05/06 16:16:00;;;;;;;;;;;;;;;24.98;48.92;97594.41;18551170;32;19944;-55
2023/05/06 16:26:03;;;;;;;;;;;;;;;24.98;57.28;97588.88;18564776;32;19953;-53
2023/05/06 16:36:06;;;;;;;;;;;;;;;25.13;51.23;97584.41;18563824;32;20309;-54
2023/05/06 16:46:08;;;;;;;;;;;;;;;24.99;53.13;97578.59;18563102;31;20246;-54
2023/05/06 16:56:11;;;;;;;;;;;;;;;24.61;55.52;97572.78;18562360;32;19949;-54
2023/05/06 17:06:14;;;;;;;;;;;;;;;24.18;56.77;97578.19;18534281;32;19996;-54
2023/05/06 17:16:16;;;;;;;;;;;;;;;23.84;54.76;97566.00;18561925;32;19949;-54
2023/05/06 17:26:19;;;;;;;;;;;;;;;23.21;63.70;97562.16;18547260;32;19969;-55
2023/05/06 17:36:22;;;;;;;;;;;;;;;22.63;79.89;97563.44;18560759;32;19967;-55
2023/05/06 17:46:24;;;;;;;;;;;;;;;22.03;94.62;97565.25;18560840;32;20361;-55
2023/05/06 17:56:27;;;;;;;;;;;;;;;21.50;94.91;97560.47;18560891;32;20375;-55
2023/05/06 18:06:30;;;;;;;;;;;;;;;20.82;100.00;97559.84;18562230;32;19948;-55
2023/05/06 18:16:33;;;;;;;;;;;;;;;20.20;100.00;97561.56;18572739;32;19964;-54
2023/05/06 18:26:36;;;;;;;;;;;;;;;19.48;100.00;97578.00;18556828;32;19967;-53
2023/05/06 18:36:46;;;;;;;;;;;;;;;18.73;100.00;97579.25;18571158;31;19991;-52
2023/05/06 18:46:49;;;;;;;;;;;;;;;18.02;100.00;97583.16;18556939;32;20252;-54
2023/05/06 18:56:53;;;;;;;;;;;;;;;17.41;100.00;97594.75;18570122;32;19948;-52
2023/05/06 19:06:56;;;;;;;;;;;;;;;16.85;100.00;97588.06;18570112;32;20011;-53
2023/05/06 19:16:59;;;;;;;;;;;;;;;16.42;100.00;97583.94;18554323;32;19963;-54
2023/05/06 19:27:02;;;;;;;;;;;;;;;16.07;100.00;97603.59;18568422;31;19996;-53
2023/05/06 19:37:05;;;;;;;;;;;;;;;15.72;100.00;97594.25;18567816;31;20242;-53
2023/05/06 19:47:07;;;;;;;;;;;;;;;15.43;100.00;97587.22;18553188;32;19987;-56
2023/05/06 19:57:10;;;;;;;;;;;;;;;15.17;100.00;97586.88;18566520;32;19957;-56
2023/05/06 20:07:14;;;;;;;;;;;;;;;14.96;100.00;97581.81;18566086;32;19948;-56
2023/05/06 20:17:17;;;;;;;;;;;;;;;14.80;100.00;97578.59;18565598;32;19972;-56
2023/05/06 20:27:20;;;;;;;;;;;;;;;14.62;100.00;97574.81;18550080;31;19983;-56
2023/05/06 20:37:24;;;;;;;;;;;;;;;14.35;100.00;97579.03;18563094;31;19956;-56
2023/05/06 20:47:26;;;;;;;;;;;;;;;14.13;100.00;97574.22;18549115;32;19956;-54
2023/05/06 20:57:29;;;;;;;;;;;;;;;13.93;100.00;97569.09;18562911;32;19948;-55
2023/05/06 21:07:31;;;;;;;;;;;;;;;13.70;100.00;97572.41;18548330;32;19987;-56
2023/05/06 21:17:34;;;;;;;;;;;;;;;13.58;100.00;97574.75;18561866;32;19952;-55
2023/05/06 21:27:36;;;;;;;;;;;;;;;13.44;100.00;97574.63;18561502;32;20003;-56
2023/05/06 21:37:38;;;;;;;;;;;;;;;13.30;100.00;97590.78;18546207;32;19994;-52
2023/05/06 21:47:41;;;;;;;;;;;;;;;13.18;100.00;97585.78;18577955;32;19982;-53
2023/05/06 21:57:44;;;;;;;;;;;;;;;13.05;100.00;97597.31;18582242;32;19956;-55
2023/05/06 22:07:47;;;;;;;;;;;;;;;12.90;100.00;97598.28;18581918;32;19971;-54
2023/05/06 22:17:49;;;;;;;;;;;;;;;12.77;100.00;97597.06;18581548;32;19957;-53
2023/05/06 22:27:51;;;;;;;;;;;;;;;12.64;100.00;97589.59;18581372;32;19953;-55
2023/05/06 22:37:54;;;;;;;;;;;;;;;12.46;100.00;97583.78;18580982;32;19960;-55
2023/05/06 22:47:56;;;;;;;;;;;;;;;12.36;100.00;97583.84;18580681;32;19964;-55
2023/05/06 22:57:58;;;;;;;;;;;;;;;12.24;100.00;97580.69;18572837;32;20015;-56
2023/05/06 23:08:00;;;;;;;;;;;;;;;12.15;100.00;97565.03;18555212;31;20287;-57
2023/05/06 23:18:03;;;;;;;;;;;;;;;12.09;100.00;97568.09;18554713;32;19949;-56
2023/05/06 23:28:05;;;;;;;;;;;;;;;11.92;100.00;97566.53;18568585;32;20352;-56
2023/05/06 23:38:07;;;;;;;;;;;;;;;11.79;100.00;97564.44;18567750;32;19971;-58
2023/05/06 23:48:09;;;;;;;;;;;;;;;11.68;100.00;97545.53;18553200;32;19989;-55
2023/05/06 23:58:12;;;;;;;;;;;;;;;11.66;100.00;97549.59;18566804;32;19952;-56
